メインページ
METAR-TAF:

METAR-TAF

空港 :

プルコヴォ空港

サンクトペテルブルク, ロシア

緯度: 59-58N, 経度: 030-18E, 海抜: 4m

現時点の気象観測

当レポートは39分前の03:30(UTC)に作成
南/南東の風 6kt、南東から南/南西の間で変化する
気温 2°C
湿度 87%
気圧 1007 hPa
視程10km以上
高度1100ftの雲はほとんどない
高度3000ftの千切れ雲あり

METAR: ULLI 130330Z 16003MPS 130V200 9999 FEW011 BKN030 02/00 Q1007 R10R/290050 NOSIG

時間: 07:09 (04:09 UTC)

予報

当レポートは2時間14分前の01:55(UTC)に作成
予報は13日の 03時(UTC)から 14日の 03時(UTC)まで有効
南/南東の風 10kt、最大19ktの突風を伴う
視程: 6000m
高度1100ftの千切れ雲あり
高度1500ftの千切れ雲あり
13日の 03時(UTC)から 13日の 06時(UTC)まで一時的に
の風 6kt、最大16ktの突風を伴う
視程: 3100m
高度1000ftの千切れ雲あり
高度1500ftの千切れ雲あり, 積乱雲.
弱いにわか雪, 雨
13日の 09時(UTC)から 13日の 18時(UTC)まで一時的に
の風 14kt、最大23ktの突風を伴う
視程: 3100m
高度1100ftの千切れ雲あり
高度2000ftの千切れ雲あり, 積乱雲.
弱いにわか雨, 雪
13日の 18時(UTC)から 14日の 03時(UTC)まで一時的に
視程: 3100m
高度1100ftの千切れ雲あり
高度2000ftの千切れ雲あり, 積乱雲.
弱いにわか雪, 雨, 靄

TAF: ULLI 130155Z 1303/1403 16005G10MPS 6000 BKN011 BKN015 TEMPO 1303/1306 18003G08MPS 3100 -SHSNRA BKN010 BKN015CB TEMPO 1309/1318 18007G12MPS 3100 -SHRASN BKN011 BKN020CB TEMPO 1318/1403 3100 -SHSNRA BR BKN011 BKN020CB

4,000以上の空港の気象観測と天気予報(METAR報とTAF報)

利用可能な観測所は地図上に黄色い丸と赤い丸で示す。

丸の上にカーソルを重ねると観測所名を参照できる。

次にクリックすると気象観測と天気予報を参照できる。

マップの切り替え:黒色「×」印の緑ボタンをクリックして拡大、「-」印の緑ボタンをクリックして縮小、緑色の三角印をクリックして隣りの地図に切り替え


METAR-TAF: